createdAt,value
2018-05-13T00:00:19.325Z,0.00
2018-05-13T00:01:19.327Z,0.00
2018-05-13T00:02:19.330Z,0.00
2018-05-13T00:03:19.332Z,0.00
2018-05-13T00:04:19.420Z,0.00
2018-05-13T00:05:19.385Z,0.00
2018-05-13T00:06:19.338Z,0.00
2018-05-13T00:07:19.343Z,0.00
2018-05-13T00:08:19.366Z,0.00
2018-05-13T00:09:19.345Z,0.00
2018-05-13T00:10:19.349Z,0.00
2018-05-13T00:11:19.358Z,0.00
2018-05-13T00:12:19.367Z,0.00
2018-05-13T00:13:19.355Z,0.00
2018-05-13T00:14:19.354Z,0.00
2018-05-13T00:15:19.366Z,0.00
2018-05-13T00:16:19.368Z,0.00
2018-05-13T00:17:19.367Z,0.00
2018-05-13T00:18:19.362Z,0.00
2018-05-13T00:19:19.367Z,0.00
2018-05-13T00:20:19.370Z,0.00
2018-05-13T00:21:19.369Z,0.00
2018-05-13T00:22:19.416Z,0.00
2018-05-13T00:23:19.377Z,0.00
2018-05-13T00:24:19.374Z,0.00
2018-05-13T00:25:19.379Z,0.00
2018-05-13T00:26:19.384Z,0.00
2018-05-13T00:27:19.385Z,0.00
2018-05-13T00:28:19.383Z,0.00
2018-05-13T00:29:19.402Z,0.00
2018-05-13T00:30:19.391Z,0.00
2018-05-13T00:31:19.414Z,0.00
2018-05-13T00:32:19.392Z,0.00
2018-05-13T00:33:19.393Z,0.00
2018-05-13T00:34:19.392Z,0.00
2018-05-13T00:35:19.394Z,0.00
2018-05-13T00:36:19.405Z,0.00
2018-05-13T00:37:19.402Z,0.00
2018-05-13T00:38:19.405Z,0.00
2018-05-13T00:39:19.403Z,0.00
2018-05-13T00:40:19.415Z,0.00
2018-05-13T00:41:19.432Z,0.00
2018-05-13T00:42:19.410Z,0.00
2018-05-13T00:43:19.410Z,0.00
2018-05-13T00:44:19.411Z,0.00
2018-05-13T00:45:19.520Z,0.00
2018-05-13T00:46:19.415Z,0.00
2018-05-13T00:47:19.421Z,0.00
2018-05-13T00:48:19.417Z,0.00
2018-05-13T00:49:19.420Z,0.00
2018-05-13T00:50:19.423Z,0.00
2018-05-13T00:51:19.427Z,0.00
2018-05-13T00:52:19.438Z,0.00
2018-05-13T00:53:19.430Z,0.00
2018-05-13T00:54:19.430Z,0.00
2018-05-13T00:55:19.431Z,0.00
2018-05-13T00:56:19.435Z,0.00
2018-05-13T00:57:19.435Z,0.00
2018-05-13T00:58:19.437Z,0.00
2018-05-13T00:59:19.440Z,0.00
2018-05-13T01:00:19.438Z,0.00
2018-05-13T01:01:19.442Z,0.00
2018-05-13T01:02:19.442Z,0.00
2018-05-13T01:03:19.444Z,0.00
2018-05-13T01:04:19.445Z,0.00
2018-05-13T01:05:19.450Z,0.00
2018-05-13T01:06:19.448Z,0.00
2018-05-13T01:07:19.450Z,0.00
2018-05-13T01:08:19.451Z,0.00
2018-05-13T01:09:19.466Z,0.00
2018-05-13T01:10:19.459Z,0.00
2018-05-13T01:11:19.461Z,0.00
2018-05-13T01:12:19.484Z,0.00
2018-05-13T01:13:19.459Z,0.00
2018-05-13T01:14:19.460Z,0.00
2018-05-13T01:15:19.466Z,0.00
2018-05-13T01:16:19.470Z,0.00
2018-05-13T01:17:19.465Z,0.00
2018-05-13T01:18:19.467Z,0.00
2018-05-13T01:19:19.471Z,0.00
2018-05-13T01:20:19.471Z,0.00
2018-05-13T01:21:19.571Z,0.00
2018-05-13T01:22:19.477Z,0.00
2018-05-13T01:23:19.473Z,0.00
2018-05-13T01:24:19.479Z,0.00
2018-05-13T01:25:19.479Z,0.00
2018-05-13T01:26:19.484Z,0.00
2018-05-13T01:27:19.481Z,0.00
2018-05-13T01:28:19.489Z,0.00
2018-05-13T01:29:19.483Z,0.00
2018-05-13T01:30:19.485Z,0.00
2018-05-13T01:31:19.487Z,0.00
2018-05-13T01:32:19.487Z,0.00
2018-05-13T01:33:19.488Z,0.00
2018-05-13T01:34:19.491Z,0.00
2018-05-13T01:35:19.491Z,0.00
2018-05-13T01:36:19.493Z,0.00
2018-05-13T01:37:19.495Z,0.00
2018-05-13T01:38:19.501Z,0.00
2018-05-13T01:39:19.499Z,0.00
2018-05-13T01:40:19.540Z,0.00
2018-05-13T01:41:19.504Z,0.00
2018-05-13T01:42:19.510Z,0.00
2018-05-13T01:43:19.518Z,0.00
2018-05-13T01:44:19.511Z,0.00
2018-05-13T01:45:19.508Z,0.00
2018-05-13T01:46:19.508Z,0.00
2018-05-13T01:47:19.511Z,0.00
2018-05-13T01:48:19.510Z,0.00
2018-05-13T01:49:19.512Z,0.00
2018-05-13T01:50:19.513Z,0.00
2018-05-13T01:51:19.521Z,0.00
2018-05-13T01:52:19.968Z,0.00
2018-05-13T01:53:19.519Z,0.00
2018-05-13T01:54:19.525Z,0.00
2018-05-13T01:55:19.517Z,0.00
2018-05-13T01:56:19.532Z,0.00
2018-05-13T01:57:19.526Z,0.00
2018-05-13T01:58:19.555Z,0.00
2018-05-13T01:59:19.522Z,0.00
2018-05-13T02:00:19.526Z,0.00
2018-05-13T02:01:19.526Z,0.00
2018-05-13T02:02:19.527Z,0.00
2018-05-13T02:03:19.532Z,0.00
2018-05-13T02:04:19.544Z,0.00
2018-05-13T02:05:19.544Z,0.00
2018-05-13T02:06:19.532Z,0.00
2018-05-13T02:07:19.536Z,0.00
2018-05-13T02:08:19.533Z,0.00
2018-05-13T02:09:19.536Z,0.00
2018-05-13T02:10:19.537Z,0.00
2018-05-13T02:11:19.537Z,0.00
2018-05-13T02:12:19.538Z,0.00
2018-05-13T02:13:19.542Z,0.00
2018-05-13T02:14:19.541Z,0.00
2018-05-13T02:15:19.542Z,0.00
2018-05-13T02:16:19.544Z,0.00
2018-05-13T02:17:19.543Z,0.00
2018-05-13T02:18:19.547Z,0.00
2018-05-13T02:19:19.547Z,0.00
2018-05-13T02:20:19.547Z,0.00
2018-05-13T02:21:19.547Z,0.00
2018-05-13T02:22:19.557Z,0.00
2018-05-13T02:23:20.347Z,0.00
2018-05-13T02:24:19.550Z,0.00
2018-05-13T02:25:19.557Z,0.00
2018-05-13T02:26:19.552Z,0.00
2018-05-13T02:27:19.553Z,0.00
2018-05-13T02:28:19.554Z,0.00
2018-05-13T02:29:19.555Z,0.00
2018-05-13T02:30:19.557Z,0.00
2018-05-13T02:31:19.558Z,0.00
2018-05-13T02:32:19.559Z,0.00
2018-05-13T02:33:19.564Z,0.00
2018-05-13T02:34:19.560Z,0.00
2018-05-13T02:35:19.564Z,0.00
2018-05-13T02:36:19.564Z,0.00
2018-05-13T02:37:19.562Z,0.00
2018-05-13T02:38:19.563Z,0.00
2018-05-13T02:39:19.566Z,0.00
2018-05-13T02:40:19.565Z,0.00
2018-05-13T02:41:19.566Z,0.00
2018-05-13T02:42:19.571Z,0.00
2018-05-13T02:43:19.569Z,0.00
2018-05-13T02:44:19.570Z,0.00
2018-05-13T02:45:19.571Z,0.00
2018-05-13T02:46:19.573Z,0.00
2018-05-13T02:47:19.576Z,0.00
2018-05-13T02:48:19.574Z,0.00
2018-05-13T02:49:19.576Z,0.00
2018-05-13T02:50:19.575Z,0.00
2018-05-13T02:51:19.574Z,0.00
2018-05-13T02:52:19.575Z,0.00
2018-05-13T02:53:19.577Z,0.00
2018-05-13T02:54:19.577Z,0.00
2018-05-13T02:55:19.589Z,0.00
2018-05-13T02:56:19.580Z,0.00
2018-05-13T02:57:19.581Z,0.00
2018-05-13T02:58:19.582Z,0.00
2018-05-13T02:59:19.580Z,0.00
2018-05-13T03:00:19.582Z,0.00
2018-05-13T03:01:19.582Z,0.00
2018-05-13T03:02:19.585Z,0.00
2018-05-13T03:03:19.583Z,0.00
2018-05-13T03:04:19.584Z,0.00
2018-05-13T03:05:19.586Z,0.00
2018-05-13T03:06:19.590Z,0.00
2018-05-13T03:07:19.585Z,0.00
2018-05-13T03:08:19.586Z,0.00
2018-05-13T03:09:19.588Z,0.00
2018-05-13T03:10:19.588Z,0.00
2018-05-13T03:11:19.588Z,0.00
2018-05-13T03:12:19.592Z,0.00
2018-05-13T03:13:19.596Z,0.00
2018-05-13T03:14:19.593Z,0.00
2018-05-13T03:15:19.589Z,0.00
2018-05-13T03:16:19.597Z,0.00
2018-05-13T03:17:19.592Z,0.00
2018-05-13T03:18:34.464Z,0.00
2018-05-13T03:19:19.592Z,0.00
2018-05-13T03:20:19.596Z,0.00
2018-05-13T03:21:19.593Z,0.00
2018-05-13T03:22:19.597Z,0.00
2018-05-13T03:23:19.595Z,0.00
2018-05-13T03:24:19.596Z,0.00
2018-05-13T03:25:19.597Z,0.00
2018-05-13T03:26:19.597Z,0.00
2018-05-13T03:27:19.597Z,0.00
2018-05-13T03:28:19.597Z,0.00
2018-05-13T03:29:19.600Z,0.00
2018-05-13T03:30:19.611Z,0.00
2018-05-13T03:31:19.604Z,0.00
2018-05-13T03:32:19.603Z,0.00
2018-05-13T03:33:19.604Z,0.00
2018-05-13T03:34:19.603Z,0.00
2018-05-13T03:35:19.604Z,5.63
2018-05-13T03:36:19.602Z,5.63
2018-05-13T03:37:19.603Z,5.63
2018-05-13T03:38:19.604Z,5.63
2018-05-13T03:39:19.603Z,5.63
2018-05-13T03:40:19.613Z,5.63
2018-05-13T03:41:19.604Z,5.63
2018-05-13T03:42:19.606Z,5.63
2018-05-13T03:43:19.606Z,5.63
2018-05-13T03:44:19.606Z,5.63
2018-05-13T03:45:19.606Z,5.63
2018-05-13T03:46:19.608Z,11.25
2018-05-13T03:47:19.606Z,11.25
2018-05-13T03:48:19.613Z,11.25
2018-05-13T03:49:19.618Z,11.25
2018-05-13T03:50:19.738Z,11.25
2018-05-13T03:51:19.608Z,11.25
2018-05-13T03:52:19.612Z,11.25
2018-05-13T03:53:19.610Z,11.25
2018-05-13T03:54:19.609Z,11.25
2018-05-13T03:55:19.609Z,11.25
2018-05-13T03:56:19.609Z,16.88
2018-05-13T03:57:19.611Z,16.88
2018-05-13T03:58:19.616Z,16.88
2018-05-13T03:59:19.611Z,16.88
2018-05-13T04:00:19.613Z,16.88
2018-05-13T04:01:19.617Z,16.88
2018-05-13T04:02:19.614Z,16.88
2018-05-13T04:03:19.613Z,22.50
2018-05-13T04:04:19.613Z,22.50
2018-05-13T04:05:19.618Z,22.50
2018-05-13T04:06:19.614Z,22.50
2018-05-13T04:07:19.672Z,22.50
2018-05-13T04:08:19.616Z,22.50
2018-05-13T04:09:19.616Z,22.50
2018-05-13T04:10:19.618Z,28.13
2018-05-13T04:11:19.617Z,28.13
2018-05-13T04:12:19.617Z,28.13
2018-05-13T04:13:19.620Z,28.13
2018-05-13T04:14:19.620Z,28.13
2018-05-13T04:15:19.641Z,28.13
2018-05-13T04:16:19.618Z,28.13
2018-05-13T04:17:19.618Z,33.75
2018-05-13T04:18:19.625Z,33.75
2018-05-13T04:19:19.620Z,33.75
2018-05-13T04:20:19.623Z,33.75
2018-05-13T04:21:19.623Z,39.38
2018-05-13T04:22:19.621Z,39.38
2018-05-13T04:23:19.632Z,39.38
2018-05-13T04:24:19.621Z,39.38
2018-05-13T04:25:19.622Z,45.00
2018-05-13T04:26:19.905Z,45.00
2018-05-13T04:27:19.623Z,45.00
2018-05-13T04:28:19.629Z,45.00
2018-05-13T04:29:19.625Z,45.00
2018-05-13T04:30:19.626Z,50.63
2018-05-13T04:31:19.689Z,50.63
2018-05-13T04:32:19.626Z,50.63
2018-05-13T04:33:19.630Z,50.63
2018-05-13T04:34:19.629Z,50.63
2018-05-13T04:35:19.628Z,50.63
2018-05-13T04:36:19.634Z,56.25
2018-05-13T04:37:19.628Z,56.25
2018-05-13T04:38:19.633Z,56.25
2018-05-13T04:39:19.630Z,61.88
2018-05-13T04:40:19.632Z,61.88
2018-05-13T04:41:19.632Z,61.88
2018-05-13T04:42:19.633Z,67.50
2018-05-13T04:43:19.633Z,67.50
2018-05-13T04:44:19.634Z,67.50
2018-05-13T04:45:19.635Z,67.50
2018-05-13T04:46:19.636Z,73.13
2018-05-13T04:47:19.641Z,73.13
2018-05-13T04:48:19.640Z,78.75
2018-05-13T04:49:19.637Z,78.75
2018-05-13T04:50:19.639Z,78.75
2018-05-13T04:51:19.641Z,84.38
2018-05-13T04:52:19.639Z,84.38
2018-05-13T04:53:19.644Z,84.38
2018-05-13T04:54:19.642Z,84.38
2018-05-13T04:55:19.642Z,84.38
2018-05-13T04:56:19.647Z,90.00
2018-05-13T04:57:20.284Z,112.50
2018-05-13T04:58:19.648Z,140.63
2018-05-13T04:59:19.649Z,168.75
2018-05-13T05:00:19.650Z,157.50
2018-05-13T05:01:19.653Z,123.75
2018-05-13T05:02:19.649Z,129.38
2018-05-13T05:03:19.649Z,174.38
2018-05-13T05:04:19.655Z,157.50
2018-05-13T05:05:19.652Z,118.13
2018-05-13T05:06:19.659Z,118.13
2018-05-13T05:07:19.657Z,123.75
2018-05-13T05:08:19.683Z,123.75
2018-05-13T05:09:19.659Z,129.38
2018-05-13T05:10:19.659Z,129.38
2018-05-13T05:11:19.662Z,129.38
2018-05-13T05:12:19.664Z,135.00
2018-05-13T05:13:19.664Z,140.63
2018-05-13T05:14:19.666Z,151.88
2018-05-13T05:15:19.670Z,163.13
2018-05-13T05:16:19.670Z,191.25
2018-05-13T05:17:19.672Z,270.00
2018-05-13T05:18:19.673Z,286.88
2018-05-13T05:19:19.673Z,258.75
2018-05-13T05:20:19.678Z,298.13
2018-05-13T05:21:19.679Z,275.63
2018-05-13T05:22:19.685Z,191.25
2018-05-13T05:23:19.684Z,180.00
2018-05-13T05:24:19.693Z,174.38
2018-05-13T05:25:19.687Z,174.38
2018-05-13T05:26:19.691Z,174.38
2018-05-13T05:27:19.691Z,180.00
2018-05-13T05:28:20.686Z,180.00
2018-05-13T05:29:19.697Z,185.63
2018-05-13T05:30:19.699Z,185.63
2018-05-13T05:31:19.702Z,191.25
2018-05-13T05:32:19.705Z,219.38
2018-05-13T05:33:19.709Z,320.63
2018-05-13T05:34:19.713Z,354.38
2018-05-13T05:35:19.711Z,326.25
2018-05-13T05:36:19.716Z,331.88
2018-05-13T05:37:19.721Z,343.13
2018-05-13T05:38:19.719Z,241.88
2018-05-13T05:39:19.726Z,196.88
2018-05-13T05:40:19.724Z,191.25
2018-05-13T05:41:19.728Z,191.25
2018-05-13T05:42:19.731Z,196.88
2018-05-13T05:43:19.734Z,196.88
2018-05-13T05:44:19.737Z,196.88
2018-05-13T05:45:19.739Z,196.88
2018-05-13T05:46:19.748Z,196.88
2018-05-13T05:47:19.747Z,196.88
2018-05-13T05:48:19.808Z,202.50
2018-05-13T05:49:19.753Z,208.13
2018-05-13T05:50:19.754Z,253.13
2018-05-13T05:51:19.757Z,331.88
2018-05-13T05:52:19.763Z,331.88
2018-05-13T05:53:19.764Z,298.13
2018-05-13T05:54:19.767Z,326.25
2018-05-13T05:55:19.769Z,326.25
2018-05-13T05:56:19.774Z,331.88
2018-05-13T05:57:19.776Z,388.13
2018-05-13T05:58:19.779Z,337.50
2018-05-13T05:59:19.858Z,219.38
2018-05-13T06:00:19.786Z,208.13
2018-05-13T06:01:19.789Z,196.88
2018-05-13T06:02:19.799Z,202.50
2018-05-13T06:03:19.888Z,196.88
2018-05-13T06:04:19.797Z,196.88
2018-05-13T06:05:19.802Z,191.25
2018-05-13T06:06:19.804Z,191.25
2018-05-13T06:07:19.806Z,191.25
2018-05-13T06:08:19.810Z,191.25
2018-05-13T06:09:19.817Z,191.25
2018-05-13T06:10:19.817Z,191.25
2018-05-13T06:11:19.820Z,191.25
2018-05-13T06:12:19.878Z,191.25
2018-05-13T06:13:19.827Z,191.25
2018-05-13T06:14:19.829Z,196.88
2018-05-13T06:15:19.830Z,196.88
2018-05-13T06:16:19.834Z,191.25
2018-05-13T06:17:19.841Z,196.88
2018-05-13T06:18:19.841Z,191.25
2018-05-13T06:19:19.846Z,196.88
2018-05-13T06:20:19.846Z,191.25
2018-05-13T06:21:19.851Z,185.63
2018-05-13T06:22:19.852Z,185.63
2018-05-13T06:23:19.856Z,185.63
2018-05-13T06:24:19.860Z,180.00
2018-05-13T06:25:19.914Z,180.00
2018-05-13T06:26:19.866Z,180.00
2018-05-13T06:27:19.867Z,174.38
2018-05-13T06:28:19.874Z,174.38
2018-05-13T06:29:19.875Z,174.38
2018-05-13T06:30:19.877Z,174.38
2018-05-13T06:31:19.880Z,168.75
2018-05-13T06:32:19.883Z,168.75
2018-05-13T06:33:19.885Z,163.13
2018-05-13T06:34:19.891Z,163.13
2018-05-13T06:35:19.892Z,163.13
2018-05-13T06:36:19.893Z,163.13
2018-05-13T06:37:19.898Z,157.50
2018-05-13T06:38:19.904Z,151.88
2018-05-13T06:39:19.904Z,146.25
2018-05-13T06:40:19.904Z,140.63
2018-05-13T06:41:19.906Z,135.00
2018-05-13T06:42:19.912Z,129.38
2018-05-13T06:43:19.915Z,123.75
2018-05-13T06:44:19.915Z,123.75
2018-05-13T06:45:19.958Z,118.13
2018-05-13T06:46:19.922Z,112.50
2018-05-13T06:47:19.932Z,112.50
2018-05-13T06:48:19.927Z,106.88
2018-05-13T06:49:19.930Z,106.88
2018-05-13T06:50:19.933Z,106.88
2018-05-13T06:51:20.035Z,106.88
2018-05-13T06:52:19.943Z,106.88
2018-05-13T06:53:19.942Z,101.25
2018-05-13T06:54:19.945Z,101.25
2018-05-13T06:55:19.953Z,101.25
2018-05-13T06:56:19.950Z,101.25
2018-05-13T06:57:19.968Z,101.25
2018-05-13T06:58:19.957Z,101.25
2018-05-13T06:59:19.959Z,101.25
2018-05-13T07:00:19.963Z,101.25
2018-05-13T07:01:19.968Z,101.25
2018-05-13T07:02:19.970Z,101.25
2018-05-13T07:03:19.974Z,101.25
2018-05-13T07:04:19.975Z,101.25
2018-05-13T07:05:19.979Z,101.25
2018-05-13T07:06:19.990Z,101.25
2018-05-13T07:07:19.985Z,101.25
2018-05-13T07:08:19.987Z,101.25
2018-05-13T07:09:19.994Z,101.25
2018-05-13T07:10:19.998Z,101.25
2018-05-13T07:11:19.997Z,101.25
2018-05-13T07:12:20.001Z,101.25
2018-05-13T07:13:20.003Z,101.25
2018-05-13T07:14:20.009Z,101.25
2018-05-13T07:15:20.010Z,101.25
2018-05-13T07:16:20.019Z,101.25
2018-05-13T07:17:20.017Z,101.25
2018-05-13T07:18:20.020Z,101.25
2018-05-13T07:19:20.029Z,101.25
2018-05-13T07:20:20.025Z,106.88
2018-05-13T07:21:20.030Z,106.88
2018-05-13T07:22:20.033Z,106.88
2018-05-13T07:23:20.039Z,106.88
2018-05-13T07:24:20.046Z,106.88
2018-05-13T07:25:20.045Z,106.88
2018-05-13T07:26:20.074Z,106.88
2018-05-13T07:27:20.048Z,106.88
2018-05-13T07:28:20.055Z,106.88
2018-05-13T07:29:20.056Z,106.88
2018-05-13T07:30:20.061Z,112.50
2018-05-13T07:31:20.202Z,112.50
2018-05-13T07:32:20.065Z,112.50
2018-05-13T07:33:20.069Z,112.50
2018-05-13T07:34:20.071Z,112.50
2018-05-13T07:35:20.075Z,112.50
2018-05-13T07:36:20.077Z,112.50
2018-05-13T07:37:20.082Z,112.50
2018-05-13T07:38:20.108Z,112.50
2018-05-13T07:39:20.089Z,112.50
2018-05-13T07:40:20.092Z,112.50
2018-05-13T07:41:20.096Z,112.50
2018-05-13T07:42:20.100Z,112.50
2018-05-13T07:43:20.165Z,112.50
2018-05-13T07:44:20.105Z,112.50
2018-05-13T07:45:20.114Z,112.50
2018-05-13T07:46:20.138Z,112.50
2018-05-13T07:47:20.115Z,112.50
2018-05-13T07:48:20.119Z,112.50
2018-05-13T07:49:20.210Z,112.50
2018-05-13T07:50:20.127Z,118.13
2018-05-13T07:51:20.128Z,118.13
2018-05-13T07:52:20.132Z,118.13
2018-05-13T07:53:20.141Z,118.13
2018-05-13T07:54:20.140Z,118.13
2018-05-13T07:55:20.143Z,118.13
2018-05-13T07:56:20.148Z,112.50
2018-05-13T07:57:20.151Z,112.50
2018-05-13T07:58:20.153Z,112.50
2018-05-13T07:59:20.172Z,112.50
2018-05-13T08:00:20.166Z,112.50
2018-05-13T08:01:20.163Z,112.50
2018-05-13T08:02:20.602Z,112.50
2018-05-13T08:03:20.172Z,112.50
2018-05-13T08:04:20.177Z,112.50
2018-05-13T08:05:20.178Z,112.50
2018-05-13T08:06:20.188Z,112.50
2018-05-13T08:07:20.189Z,106.88
2018-05-13T08:08:20.191Z,112.50
2018-05-13T08:09:20.195Z,112.50
2018-05-13T08:10:20.198Z,112.50
2018-05-13T08:11:20.207Z,112.50
2018-05-13T08:12:20.205Z,112.50
2018-05-13T08:13:20.208Z,112.50
2018-05-13T08:14:20.213Z,112.50
2018-05-13T08:15:20.215Z,118.13
2018-05-13T08:16:20.221Z,118.13
2018-05-13T08:17:20.225Z,118.13
2018-05-13T08:18:20.228Z,118.13
2018-05-13T08:19:20.263Z,118.13
2018-05-13T08:20:20.369Z,118.13
2018-05-13T08:21:20.241Z,118.13
2018-05-13T08:22:20.252Z,123.75
2018-05-13T08:23:20.249Z,123.75
2018-05-13T08:24:20.251Z,123.75
2018-05-13T08:25:20.261Z,123.75
2018-05-13T08:26:20.261Z,123.75
2018-05-13T08:27:20.265Z,123.75
2018-05-13T08:28:20.276Z,123.75
2018-05-13T08:29:20.277Z,123.75
2018-05-13T08:30:20.276Z,123.75
2018-05-13T08:31:20.282Z,123.75
2018-05-13T08:32:20.285Z,123.75
2018-05-13T08:33:20.980Z,123.75
2018-05-13T08:34:20.296Z,123.75
2018-05-13T08:35:20.297Z,123.75
2018-05-13T08:36:20.303Z,129.38
2018-05-13T08:37:20.310Z,129.38
2018-05-13T08:38:20.312Z,123.75
2018-05-13T08:39:20.326Z,129.38
2018-05-13T08:40:20.319Z,146.25
2018-05-13T08:41:20.324Z,270.00
2018-05-13T08:42:20.329Z,433.13
2018-05-13T08:43:20.331Z,500.63
2018-05-13T08:44:20.336Z,506.25
2018-05-13T08:45:20.341Z,523.13
2018-05-13T08:46:20.346Z,523.13
2018-05-13T08:47:20.350Z,540.00
2018-05-13T08:48:20.356Z,551.25
2018-05-13T08:49:20.362Z,573.75
2018-05-13T08:50:20.366Z,590.63
2018-05-13T08:51:20.377Z,585.00
2018-05-13T08:52:20.381Z,607.50
2018-05-13T08:53:20.385Z,601.88
2018-05-13T08:54:20.394Z,613.13
2018-05-13T08:55:20.416Z,635.63
2018-05-13T08:56:20.407Z,646.88
2018-05-13T08:57:20.415Z,675.00
2018-05-13T08:58:20.421Z,691.88
2018-05-13T08:59:20.432Z,708.75
2018-05-13T09:00:20.437Z,736.88
2018-05-13T09:01:20.446Z,748.13
2018-05-13T09:02:20.463Z,731.25
2018-05-13T09:03:20.465Z,742.50
2018-05-13T09:04:21.386Z,765.00
2018-05-13T09:05:20.485Z,776.25
2018-05-13T09:06:20.492Z,793.13
2018-05-13T09:07:20.502Z,697.50
2018-05-13T09:08:20.538Z,804.38
2018-05-13T09:09:20.521Z,438.75
2018-05-13T09:10:20.529Z,590.63
2018-05-13T09:11:20.554Z,832.50
2018-05-13T09:12:20.548Z,866.25
2018-05-13T09:13:20.559Z,213.75
2018-05-13T09:14:20.592Z,883.13
2018-05-13T09:15:20.579Z,916.88
2018-05-13T09:16:20.589Z,928.13
2018-05-13T09:17:20.598Z,956.25
2018-05-13T09:18:20.640Z,691.88
2018-05-13T09:19:20.620Z,961.88
2018-05-13T09:20:20.626Z,945.00
2018-05-13T09:21:20.638Z,945.00
2018-05-13T09:22:20.653Z,950.63
2018-05-13T09:23:20.658Z,995.63
2018-05-13T09:24:20.669Z,1006.88
2018-05-13T09:25:20.681Z,1068.75
2018-05-13T09:26:20.689Z,1102.50
2018-05-13T09:27:20.698Z,1119.38
2018-05-13T09:28:20.709Z,1119.38
2018-05-13T09:29:20.724Z,1125.00
2018-05-13T09:30:20.731Z,1141.88
2018-05-13T09:31:20.741Z,1119.38
2018-05-13T09:32:20.766Z,1108.13
2018-05-13T09:33:20.767Z,1113.75
2018-05-13T09:34:20.776Z,1141.88
2018-05-13T09:35:21.762Z,1158.75
2018-05-13T09:36:20.804Z,1181.25
2018-05-13T09:37:20.815Z,1130.63
2018-05-13T09:38:20.823Z,1209.38
2018-05-13T09:39:20.833Z,1215.00
2018-05-13T09:40:20.851Z,1175.63
2018-05-13T09:41:20.856Z,1248.75
2018-05-13T09:42:20.869Z,1282.50
2018-05-13T09:43:20.880Z,1305.00
2018-05-13T09:44:20.896Z,1271.25
2018-05-13T09:45:20.906Z,230.63
2018-05-13T09:46:20.919Z,810.00
2018-05-13T09:47:20.930Z,652.50
2018-05-13T09:48:20.947Z,382.50
2018-05-13T09:49:20.955Z,219.38
2018-05-13T09:50:20.969Z,196.88
2018-05-13T09:51:21.060Z,202.50
2018-05-13T09:52:20.991Z,202.50
2018-05-13T09:53:21.005Z,202.50
2018-05-13T09:54:21.023Z,202.50
2018-05-13T09:55:21.024Z,202.50
2018-05-13T09:56:21.035Z,196.88
2018-05-13T09:57:21.047Z,196.88
2018-05-13T09:58:21.058Z,191.25
2018-05-13T09:59:21.067Z,185.63
2018-05-13T10:00:21.078Z,180.00
2018-05-13T10:01:21.089Z,191.25
2018-05-13T10:02:21.102Z,213.75
2018-05-13T10:03:21.110Z,236.25
2018-05-13T10:04:21.120Z,163.13
2018-05-13T10:05:21.126Z,146.25
2018-05-13T10:06:21.138Z,146.25
2018-05-13T10:07:21.145Z,208.13
2018-05-13T10:08:21.157Z,219.38
2018-05-13T10:09:21.172Z,213.75
2018-05-13T10:10:21.172Z,208.13
2018-05-13T10:11:21.178Z,219.38
2018-05-13T10:12:21.188Z,213.75
2018-05-13T10:13:21.195Z,196.88
2018-05-13T10:14:21.204Z,230.63
2018-05-13T10:15:21.215Z,230.63
2018-05-13T10:16:21.217Z,202.50
2018-05-13T10:17:21.228Z,225.00
2018-05-13T10:18:21.237Z,185.63
2018-05-13T10:19:21.244Z,1023.75
2018-05-13T10:20:21.252Z,202.50
2018-05-13T10:21:21.261Z,219.38
2018-05-13T10:22:21.276Z,1586.25
2018-05-13T10:23:21.277Z,1603.13
2018-05-13T10:24:21.284Z,1625.63
2018-05-13T10:25:21.293Z,1670.63
2018-05-13T10:26:21.300Z,1687.50
2018-05-13T10:27:21.462Z,1698.75
2018-05-13T10:28:21.313Z,1676.25
2018-05-13T10:29:21.323Z,1715.63
2018-05-13T10:30:21.332Z,1732.50
2018-05-13T10:31:21.341Z,1665.00
2018-05-13T10:32:21.352Z,1648.13
2018-05-13T10:33:21.361Z,1580.63
2018-05-13T10:34:21.372Z,1648.13
2018-05-13T10:35:21.384Z,1625.63
2018-05-13T10:36:21.395Z,1653.75
2018-05-13T10:37:21.404Z,1653.75
2018-05-13T10:38:21.417Z,1693.13
2018-05-13T10:39:21.427Z,1771.88
2018-05-13T10:40:21.439Z,1749.38
2018-05-13T10:41:21.451Z,1811.25
2018-05-13T10:42:21.466Z,1721.25
2018-05-13T10:43:21.473Z,1783.13
2018-05-13T10:44:21.485Z,1777.50
2018-05-13T10:45:21.502Z,1788.75
2018-05-13T10:46:21.512Z,1816.88
2018-05-13T10:47:21.523Z,1811.25
2018-05-13T10:48:21.539Z,1811.25
2018-05-13T10:49:21.552Z,1805.63
2018-05-13T10:50:21.564Z,1856.25
2018-05-13T10:51:21.578Z,1878.75
2018-05-13T10:52:21.590Z,1569.38
2018-05-13T10:53:21.605Z,213.75
2018-05-13T10:54:21.617Z,129.38
2018-05-13T10:55:21.631Z,157.50
2018-05-13T10:56:21.646Z,191.25
2018-05-13T10:57:21.668Z,168.75
2018-05-13T10:58:21.675Z,202.50
2018-05-13T10:59:21.688Z,1333.13
2018-05-13T11:00:21.699Z,241.88
2018-05-13T11:01:21.715Z,1749.38
2018-05-13T11:02:21.724Z,1794.38
2018-05-13T11:03:21.740Z,1800.00
2018-05-13T11:04:21.744Z,1912.50
2018-05-13T11:05:21.756Z,1861.88
2018-05-13T11:06:21.768Z,1895.63
2018-05-13T11:07:21.780Z,1839.38
2018-05-13T11:08:21.792Z,922.50
2018-05-13T11:09:21.807Z,399.38
2018-05-13T11:10:21.855Z,444.38
2018-05-13T11:11:21.828Z,1906.88
2018-05-13T11:12:21.840Z,1867.50
2018-05-13T11:13:21.852Z,1867.50
2018-05-13T11:14:21.864Z,1828.13
2018-05-13T11:15:21.877Z,1867.50
2018-05-13T11:16:21.892Z,270.00
2018-05-13T11:17:21.901Z,202.50
2018-05-13T11:18:21.916Z,168.75
2018-05-13T11:19:21.926Z,157.50
2018-05-13T11:20:21.939Z,163.13
2018-05-13T11:21:21.952Z,253.13
2018-05-13T11:22:21.960Z,196.88
2018-05-13T11:23:21.974Z,236.25
2018-05-13T11:24:21.980Z,1816.88
2018-05-13T11:25:21.995Z,1912.50
2018-05-13T11:26:22.002Z,1738.13
2018-05-13T11:27:22.013Z,1901.25
2018-05-13T11:28:22.023Z,2036.25
2018-05-13T11:29:22.034Z,2002.50
2018-05-13T11:30:22.051Z,1051.88
2018-05-13T11:31:22.057Z,1996.88
2018-05-13T11:32:22.065Z,1963.13
2018-05-13T11:33:22.085Z,1603.13
2018-05-13T11:34:22.094Z,1991.25
2018-05-13T11:35:22.097Z,2036.25
2018-05-13T11:36:22.114Z,2019.38
2018-05-13T11:37:22.130Z,1445.63
2018-05-13T11:38:22.132Z,2064.38
2018-05-13T11:39:22.143Z,540.00
2018-05-13T11:40:22.156Z,191.25
2018-05-13T11:41:22.171Z,163.13
2018-05-13T11:42:22.181Z,1659.38
2018-05-13T11:43:22.192Z,2013.75
2018-05-13T11:44:22.204Z,2019.38
2018-05-13T11:45:22.216Z,2013.75
2018-05-13T11:46:22.227Z,2008.13
2018-05-13T11:47:22.239Z,2008.13
2018-05-13T11:48:22.250Z,2053.13
2018-05-13T11:49:22.262Z,2047.50
2018-05-13T11:50:22.275Z,2036.25
2018-05-13T11:51:22.287Z,2036.25
2018-05-13T11:52:22.298Z,2030.63
2018-05-13T11:53:22.324Z,2075.63
2018-05-13T11:54:22.329Z,2053.13
2018-05-13T11:55:22.337Z,2075.63
2018-05-13T11:56:22.430Z,2058.75
2018-05-13T11:57:22.366Z,1344.38
2018-05-13T11:58:22.376Z,2092.50
2018-05-13T11:59:22.388Z,1996.88
2018-05-13T12:00:22.399Z,2098.13
2018-05-13T12:01:22.415Z,2098.13
2018-05-13T12:02:22.489Z,2041.88
2018-05-13T12:03:22.441Z,1980.00
2018-05-13T12:04:22.455Z,1248.75
2018-05-13T12:05:22.471Z,1625.63
2018-05-13T12:06:22.485Z,1400.63
2018-05-13T12:07:22.503Z,1164.38
2018-05-13T12:08:22.520Z,922.50
2018-05-13T12:09:22.524Z,714.38
2018-05-13T12:10:22.536Z,523.13
2018-05-13T12:11:22.558Z,354.38
2018-05-13T12:12:22.563Z,236.25
2018-05-13T12:13:22.575Z,174.38
2018-05-13T12:14:22.594Z,174.38
2018-05-13T12:15:22.601Z,196.88
2018-05-13T12:16:22.614Z,191.25
2018-05-13T12:17:22.625Z,174.38
2018-05-13T12:18:22.653Z,202.50
2018-05-13T12:19:22.649Z,196.88
2018-05-13T12:20:22.663Z,202.50
2018-05-13T12:21:22.671Z,168.75
2018-05-13T12:22:22.682Z,180.00
2018-05-13T12:23:22.692Z,168.75
2018-05-13T12:24:22.702Z,163.13
2018-05-13T12:25:22.713Z,163.13
2018-05-13T12:26:22.738Z,163.13
2018-05-13T12:27:22.737Z,168.75
2018-05-13T12:28:22.745Z,151.88
2018-05-13T12:29:22.753Z,168.75
2018-05-13T12:30:22.767Z,157.50
2018-05-13T12:31:22.772Z,157.50
2018-05-13T12:32:22.780Z,157.50
2018-05-13T12:33:22.791Z,157.50
2018-05-13T12:34:22.799Z,157.50
2018-05-13T12:35:22.808Z,157.50
2018-05-13T12:36:22.832Z,157.50
2018-05-13T12:37:22.853Z,157.50
2018-05-13T12:38:22.834Z,157.50
2018-05-13T12:39:22.842Z,157.50
2018-05-13T12:40:22.858Z,157.50
2018-05-13T12:41:22.865Z,157.50